createdAt,value
2022-12-16T00:01:23.031Z,71.28
2022-12-16T00:03:51.864Z,75.60
2022-12-16T00:06:19.613Z,73.63
2022-12-16T00:08:46.606Z,77.68
2022-12-16T00:11:14.126Z,74.90
2022-12-16T00:13:41.329Z,71.38
2022-12-16T00:16:13.681Z,76.20
2022-12-16T00:18:40.948Z,76.38
2022-12-16T00:21:09.247Z,76.00
2022-12-16T00:23:36.505Z,73.63
2022-12-16T00:26:04.056Z,75.45
2022-12-16T00:28:31.318Z,77.20
2022-12-16T00:30:58.235Z,82.95
2022-12-16T00:33:26.493Z,81.75
2022-12-16T00:35:54.325Z,79.78
2022-12-16T00:38:22.515Z,86.35
2022-12-16T00:40:50.033Z,84.38
2022-12-16T00:43:20.157Z,78.85
2022-12-16T00:45:47.650Z,84.60
2022-12-16T00:48:15.397Z,85.68
2022-12-16T00:50:48.743Z,85.88
2022-12-16T00:53:15.649Z,78.18
2022-12-16T00:55:42.639Z,91.55
2022-12-16T00:58:09.461Z,75.70
2022-12-16T01:00:36.285Z,78.72
2022-12-16T01:03:03.558Z,76.70
2022-12-16T01:05:30.516Z,80.95
2022-12-16T01:07:57.810Z,78.65
2022-12-16T01:10:25.789Z,84.00
2022-12-16T01:12:52.802Z,72.27
2022-12-16T01:15:19.946Z,77.30
2022-12-16T01:17:46.857Z,80.43
2022-12-16T01:20:14.203Z,78.25
2022-12-16T01:22:41.264Z,71.43
2022-12-16T01:25:09.663Z,78.03
2022-12-16T01:27:36.505Z,76.95
2022-12-16T01:30:03.448Z,72.63
2022-12-16T01:32:30.612Z,68.90
2022-12-16T01:34:57.628Z,71.53
2022-12-16T01:37:24.800Z,73.72
2022-12-16T01:39:52.398Z,69.50
2022-12-16T01:42:22.643Z,67.65
2022-12-16T01:44:52.168Z,66.57
2022-12-16T01:47:32.898Z,66.47
2022-12-16T01:50:04.462Z,67.82
2022-12-16T01:52:36.292Z,65.80
2022-12-16T01:55:07.465Z,64.70
2022-12-16T01:57:40.898Z,63.35
2022-12-16T02:00:09.092Z,59.35
2022-12-16T02:02:36.669Z,57.45
2022-12-16T02:05:21.964Z,60.47
2022-12-16T02:08:15.892Z,65.00
2022-12-16T02:10:56.529Z,64.75
2022-12-16T02:13:41.170Z,66.40
2022-12-16T02:16:17.180Z,62.38
2022-12-16T02:19:23.030Z,58.08
2022-12-16T02:22:11.353Z,58.23
2022-12-16T02:24:46.942Z,63.58
2022-12-16T02:27:17.686Z,61.00
2022-12-16T02:29:57.225Z,64.17
2022-12-16T02:32:36.491Z,62.30
2022-12-16T02:35:24.864Z,68.00
2022-12-16T02:38:12.163Z,60.80
2022-12-16T02:40:49.522Z,64.83
2022-12-16T02:43:41.413Z,63.75
2022-12-16T02:46:09.722Z,62.72
2022-12-16T02:48:36.830Z,59.72
2022-12-16T02:51:03.733Z,63.17
2022-12-16T02:53:33.837Z,60.13
2022-12-16T02:56:18.717Z,61.50
2022-12-16T02:58:52.313Z,66.30
2022-12-16T03:01:35.217Z,68.40
2022-12-16T03:04:17.800Z,66.10
2022-12-16T03:06:49.729Z,65.17
2022-12-16T03:09:23.158Z,58.67
2022-12-16T03:11:54.138Z,61.03
2022-12-16T03:14:25.492Z,64.90
2022-12-16T03:16:52.539Z,60.95
2022-12-16T03:19:20.542Z,61.03
2022-12-16T03:22:14.426Z,62.07
2022-12-16T03:24:41.822Z,61.27
2022-12-16T03:27:21.791Z,65.15
2022-12-16T03:30:01.614Z,62.30
2022-12-16T03:32:48.140Z,69.28
2022-12-16T03:35:33.500Z,59.13
2022-12-16T03:38:03.426Z,73.10
2022-12-16T03:40:32.412Z,65.32
2022-12-16T03:43:01.544Z,71.40
2022-12-16T03:45:35.533Z,71.57
2022-12-16T03:48:02.550Z,73.22
2022-12-16T03:50:32.866Z,72.53
2022-12-16T03:53:00.150Z,67.68
2022-12-16T03:55:26.984Z,70.15
2022-12-16T03:57:54.051Z,73.83
2022-12-16T04:00:21.112Z,69.82
2022-12-16T04:02:48.010Z,69.27
2022-12-16T04:05:15.132Z,72.63
2022-12-16T04:07:41.931Z,77.38
2022-12-16T04:10:09.966Z,68.35
2022-12-16T04:12:55.649Z,73.80
2022-12-16T04:15:41.470Z,72.70
2022-12-16T04:18:36.983Z,73.35
2022-12-16T04:21:22.800Z,69.40
2022-12-16T04:24:13.357Z,75.93
2022-12-16T04:26:58.859Z,78.43
2022-12-16T04:29:26.047Z,73.87
2022-12-16T04:31:53.152Z,73.87
2022-12-16T04:34:27.621Z,74.93
2022-12-16T04:37:14.704Z,73.20
2022-12-16T04:40:00.158Z,77.00
2022-12-16T04:42:45.801Z,67.43
2022-12-16T04:45:31.361Z,70.47
2022-12-16T04:48:16.580Z,70.97
2022-12-16T04:51:02.733Z,77.60
2022-12-16T04:53:48.230Z,67.38
2022-12-16T04:56:33.597Z,81.03
2022-12-16T04:59:18.949Z,70.68
2022-12-16T05:02:04.406Z,78.50
2022-12-16T05:04:49.840Z,71.15
2022-12-16T05:07:38.417Z,70.40
2022-12-16T05:10:44.580Z,71.97
2022-12-16T05:13:29.827Z,74.00
2022-12-16T05:16:15.276Z,75.45
2022-12-16T05:19:00.772Z,65.20
2022-12-16T05:21:46.189Z,70.87
2022-12-16T05:24:31.780Z,73.57
2022-12-16T05:27:17.170Z,64.70
2022-12-16T05:30:02.726Z,72.60
2022-12-16T05:32:48.653Z,71.00
2022-12-16T05:35:34.126Z,68.03
2022-12-16T05:38:19.721Z,71.63
2022-12-16T05:41:05.150Z,73.40
2022-12-16T05:43:50.741Z,65.87
2022-12-16T05:46:36.235Z,70.70
2022-12-16T05:49:21.565Z,69.30
2022-12-16T05:52:07.030Z,67.27
2022-12-16T05:54:52.460Z,70.83
2022-12-16T05:57:37.945Z,68.87
2022-12-16T06:00:23.774Z,74.90
2022-12-16T06:03:09.534Z,71.93
2022-12-16T06:05:54.958Z,65.17
2022-12-16T06:08:40.345Z,62.83
2022-12-16T06:11:25.805Z,67.73
2022-12-16T06:14:11.245Z,75.77
2022-12-16T06:16:56.830Z,67.83
2022-12-16T06:19:42.005Z,73.57
2022-12-16T06:22:27.520Z,65.90
2022-12-16T06:25:13.000Z,69.47
2022-12-16T06:27:58.493Z,74.47
2022-12-16T06:30:44.920Z,72.80
2022-12-16T06:33:30.825Z,62.17
2022-12-16T06:36:16.237Z,67.60
2022-12-16T06:39:01.715Z,66.67
2022-12-16T06:41:47.055Z,69.10
2022-12-16T06:44:32.575Z,68.37
2022-12-16T06:47:18.135Z,70.93
2022-12-16T06:50:03.641Z,57.57
2022-12-16T06:52:50.111Z,58.27
2022-12-16T06:55:35.493Z,59.13
2022-12-16T06:58:20.961Z,64.97
2022-12-16T07:01:06.657Z,60.67
2022-12-16T07:03:51.894Z,59.23
2022-12-16T07:06:37.485Z,61.30
2022-12-16T07:09:22.922Z,65.90
2022-12-16T07:12:08.391Z,59.87
2022-12-16T07:14:53.800Z,54.73
2022-12-16T07:17:39.316Z,58.03
2022-12-16T07:20:24.909Z,55.30
2022-12-16T07:23:16.145Z,65.17
2022-12-16T07:26:04.758Z,57.27
2022-12-16T07:28:50.146Z,63.37
2022-12-16T07:31:35.787Z,84.90
2022-12-16T07:34:21.072Z,72.83
2022-12-16T07:37:06.534Z,57.50
2022-12-16T07:40:08.755Z,58.67
2022-12-16T07:42:53.834Z,62.00
2022-12-16T07:45:44.997Z,70.60
2022-12-16T07:48:30.841Z,59.07
2022-12-16T07:51:16.358Z,64.37
2022-12-16T07:54:01.934Z,58.97
2022-12-16T07:56:47.274Z,61.03
2022-12-16T07:59:32.823Z,57.58
2022-12-16T08:02:18.721Z,56.80
2022-12-16T08:05:04.297Z,60.28
2022-12-16T08:07:49.838Z,56.08
2022-12-16T08:10:35.308Z,69.78
2022-12-16T08:13:32.259Z,55.85
2022-12-16T08:16:17.826Z,54.80
2022-12-16T08:19:10.522Z,49.63
2022-12-16T08:21:56.519Z,52.72
2022-12-16T08:24:41.940Z,51.40
2022-12-16T08:27:27.352Z,58.50
2022-12-16T08:30:12.777Z,52.63
2022-12-16T08:33:01.840Z,59.08
2022-12-16T08:35:50.532Z,54.90
2022-12-16T08:38:36.422Z,53.85
2022-12-16T08:41:21.953Z,46.55
2022-12-16T08:44:07.411Z,53.13
2022-12-16T08:46:52.966Z,52.03
2022-12-16T08:49:38.367Z,51.58
2022-12-16T08:52:23.999Z,44.55
2022-12-16T08:55:09.278Z,49.33
2022-12-16T08:57:54.695Z,46.20
2022-12-16T09:00:40.714Z,47.30
2022-12-16T09:03:26.272Z,44.97
2022-12-16T09:06:16.998Z,48.38
2022-12-16T09:09:02.429Z,48.75
2022-12-16T09:11:47.772Z,46.42
2022-12-16T09:14:33.053Z,44.63
2022-12-16T09:17:18.681Z,50.58
2022-12-16T09:20:04.247Z,46.67
2022-12-16T09:22:50.297Z,46.78
2022-12-16T09:25:36.037Z,44.25
2022-12-16T09:28:21.527Z,49.67
2022-12-16T09:31:07.138Z,46.60
2022-12-16T09:33:52.456Z,44.80
2022-12-16T09:36:37.939Z,47.38
2022-12-16T09:39:23.261Z,45.42
2022-12-16T09:42:40.476Z,43.90
2022-12-16T09:45:35.373Z,44.25
2022-12-16T09:48:31.460Z,46.05
2022-12-16T09:51:22.958Z,51.13
2022-12-16T09:54:11.382Z,47.17
2022-12-16T09:56:56.944Z,43.83
2022-12-16T09:59:53.774Z,42.88
2022-12-16T10:02:40.580Z,44.40
2022-12-16T10:05:34.059Z,44.58
2022-12-16T10:08:50.769Z,44.13
2022-12-16T10:11:44.493Z,43.60
2022-12-16T10:14:39.258Z,47.70
2022-12-16T10:17:36.620Z,44.05
2022-12-16T10:20:50.952Z,41.00
2022-12-16T10:26:55.878Z,39.88
2022-12-16T10:29:45.578Z,42.22
2022-12-16T10:32:38.093Z,41.53
2022-12-16T10:35:41.274Z,40.15
2022-12-16T10:38:41.479Z,36.50
2022-12-16T10:41:28.431Z,39.10
2022-12-16T10:44:16.063Z,53.60
2022-12-16T10:47:01.462Z,43.83
2022-12-16T10:49:53.672Z,51.65
2022-12-16T10:52:40.433Z,48.65
2022-12-16T10:55:38.781Z,47.50
2022-12-16T10:58:38.802Z,43.25
2022-12-16T11:01:44.576Z,42.13
2022-12-16T11:04:56.132Z,43.25
2022-12-16T11:07:44.951Z,40.50
2022-12-16T11:10:48.041Z,36.15
2022-12-16T11:13:49.177Z,31.10
2022-12-16T11:16:46.368Z,33.42
2022-12-16T11:19:44.229Z,37.17
2022-12-16T11:22:38.006Z,37.40
2022-12-16T11:28:30.749Z,31.92
2022-12-16T11:34:04.460Z,29.42
2022-12-16T11:36:51.510Z,26.95
2022-12-16T11:39:40.092Z,28.27
2022-12-16T11:42:52.497Z,27.50
2022-12-16T11:45:39.747Z,24.30
2022-12-16T11:49:02.368Z,25.70
2022-12-16T11:51:54.477Z,25.70
2022-12-16T11:54:54.392Z,23.27
2022-12-16T11:57:51.446Z,26.98
2022-12-16T12:00:38.050Z,23.92
2022-12-16T12:03:33.891Z,23.90
2022-12-16T12:06:26.657Z,23.77
2022-12-16T12:09:34.021Z,19.10
2022-12-16T12:12:19.523Z,18.38
2022-12-16T12:15:17.384Z,21.63
2022-12-16T12:18:20.222Z,20.55
2022-12-16T12:21:18.797Z,17.42
2022-12-16T12:24:33.322Z,17.95
2022-12-16T12:27:39.600Z,20.95
2022-12-16T12:30:31.346Z,17.83
2022-12-16T12:33:58.789Z,20.48
2022-12-16T12:36:54.503Z,16.80
2022-12-16T12:39:43.489Z,21.98
2022-12-16T12:43:06.429Z,19.02
2022-12-16T12:45:51.926Z,18.42
2022-12-16T12:49:18.979Z,26.05
2022-12-16T12:52:20.186Z,36.15
2022-12-16T12:55:11.686Z,19.15
2022-12-16T12:57:59.616Z,19.88
2022-12-16T13:00:47.865Z,20.25
2022-12-16T13:03:54.601Z,20.38
2022-12-16T13:06:42.573Z,21.13
2022-12-16T13:09:57.242Z,21.02
2022-12-16T13:12:51.370Z,23.77
2022-12-16T13:15:59.257Z,21.88
2022-12-16T13:18:51.877Z,20.63
2022-12-16T13:21:56.536Z,22.05
2022-12-16T13:24:45.521Z,26.90
2022-12-16T13:27:35.074Z,21.70
2022-12-16T13:30:28.615Z,22.20
2022-12-16T13:33:16.946Z,24.00
2022-12-16T13:36:19.392Z,25.60
2022-12-16T13:39:14.505Z,22.48
2022-12-16T13:42:02.845Z,23.65
2022-12-16T13:45:01.711Z,20.38
2022-12-16T13:48:00.164Z,19.88
2022-12-16T13:50:57.192Z,24.80
2022-12-16T13:53:46.897Z,20.83
2022-12-16T13:56:39.900Z,24.40
2022-12-16T13:59:36.420Z,23.15
2022-12-16T14:02:41.982Z,24.17
2022-12-16T14:05:41.502Z,26.55
2022-12-16T14:08:35.087Z,26.58
2022-12-16T14:11:24.273Z,24.83
2022-12-16T14:14:43.421Z,29.45
2022-12-16T14:17:47.608Z,24.83
2022-12-16T14:20:41.019Z,27.15
2022-12-16T14:23:58.283Z,25.50
2022-12-16T14:26:45.260Z,25.35
2022-12-16T14:29:46.417Z,28.15
2022-12-16T14:32:42.444Z,22.70
2022-12-16T14:35:33.213Z,21.33
2022-12-16T14:38:44.986Z,24.60
2022-12-16T14:41:42.183Z,23.55
2022-12-16T14:44:41.946Z,25.45
2022-12-16T14:47:38.207Z,25.13
2022-12-16T14:50:39.509Z,25.30
2022-12-16T14:53:34.518Z,24.38
2022-12-16T14:56:33.135Z,33.33
2022-12-16T14:59:38.075Z,30.83
2022-12-16T15:02:47.010Z,26.17
2022-12-16T15:05:32.831Z,26.75
2022-12-16T15:08:18.882Z,27.33
2022-12-16T15:11:04.480Z,26.45
2022-12-16T15:13:53.827Z,24.40
2022-12-16T15:16:52.297Z,28.20
2022-12-16T15:19:41.231Z,28.02
2022-12-16T15:22:33.775Z,27.48
2022-12-16T15:25:19.465Z,25.65
2022-12-16T15:28:13.648Z,22.63
2022-12-16T15:31:04.285Z,21.98
2022-12-16T15:33:56.307Z,25.05
2022-12-16T15:36:47.451Z,22.20
2022-12-16T15:40:00.375Z,20.63
2022-12-16T15:42:48.480Z,25.33
2022-12-16T15:45:37.218Z,21.70
2022-12-16T15:48:45.326Z,25.98
2022-12-16T15:51:49.800Z,22.35
2022-12-16T15:54:41.624Z,20.88
2022-12-16T15:57:48.401Z,22.92
2022-12-16T16:00:48.757Z,21.33
2022-12-16T16:03:49.259Z,20.95
2022-12-16T16:06:42.678Z,20.20
2022-12-16T16:09:41.134Z,20.50
2022-12-16T16:12:31.200Z,20.70
2022-12-16T16:15:16.744Z,24.67
2022-12-16T16:18:02.784Z,20.92
2022-12-16T16:20:48.318Z,26.73
2022-12-16T16:23:34.167Z,37.78
2022-12-16T16:26:20.165Z,31.27
2022-12-16T16:29:05.592Z,31.70
2022-12-16T16:31:51.009Z,26.27
2022-12-16T16:34:36.567Z,26.27
2022-12-16T16:37:22.126Z,38.20
2022-12-16T16:40:07.861Z,28.48
2022-12-16T16:42:54.286Z,28.65
2022-12-16T16:45:39.618Z,24.02
2022-12-16T16:48:35.138Z,26.33
2022-12-16T16:51:22.243Z,19.88
2022-12-16T16:54:07.886Z,20.85
2022-12-16T16:56:55.593Z,20.00
2022-12-16T16:59:42.213Z,21.85
2022-12-16T17:02:40.893Z,23.02
2022-12-16T17:05:31.913Z,19.90
2022-12-16T17:08:17.415Z,23.98
2022-12-16T17:11:02.923Z,22.52
2022-12-16T17:13:48.493Z,23.55
2022-12-16T17:16:34.051Z,24.98
2022-12-16T17:19:27.014Z,51.05
2022-12-16T17:22:12.553Z,31.65
2022-12-16T17:24:57.903Z,30.17
2022-12-16T17:27:44.665Z,28.58
2022-12-16T17:30:40.731Z,22.02
2022-12-16T17:33:29.142Z,21.08
2022-12-16T17:36:14.742Z,19.98
2022-12-16T17:39:01.674Z,23.52
2022-12-16T17:41:49.286Z,22.45
2022-12-16T17:44:34.981Z,23.75
2022-12-16T17:47:20.809Z,22.40
2022-12-16T17:50:06.334Z,22.75
2022-12-16T17:52:51.769Z,28.25
2022-12-16T17:55:37.230Z,28.20
2022-12-16T17:58:22.804Z,24.23
2022-12-16T18:01:08.248Z,27.88
2022-12-16T18:03:53.977Z,30.70
2022-12-16T18:06:39.206Z,30.33
2022-12-16T18:09:41.530Z,32.42
2022-12-16T18:12:27.095Z,35.40
2022-12-16T18:15:12.651Z,34.20
2022-12-16T18:17:58.174Z,34.28
2022-12-16T18:20:43.639Z,35.25
2022-12-16T18:23:29.197Z,35.97
2022-12-16T18:26:25.772Z,33.67
2022-12-16T18:29:11.360Z,34.45
2022-12-16T18:31:56.900Z,40.33
2022-12-16T18:34:43.075Z,34.65
2022-12-16T18:37:32.155Z,43.13
2022-12-16T18:40:17.578Z,44.00
2022-12-16T18:43:03.048Z,43.42
2022-12-16T18:45:48.519Z,43.55
2022-12-16T18:48:33.773Z,41.15
2022-12-16T18:51:19.842Z,40.72
2022-12-16T18:54:09.090Z,42.17
2022-12-16T18:56:55.090Z,42.85
2022-12-16T18:59:57.766Z,44.83
2022-12-16T19:02:43.701Z,43.25
2022-12-16T19:05:29.737Z,46.65
2022-12-16T19:08:15.190Z,40.78
2022-12-16T19:11:01.136Z,45.63
2022-12-16T19:13:46.528Z,46.27
2022-12-16T19:16:33.056Z,44.30
2022-12-16T19:19:20.425Z,47.70
2022-12-16T19:22:06.507Z,43.35
2022-12-16T19:24:52.065Z,46.50
2022-12-16T19:27:38.017Z,48.30
2022-12-16T19:30:24.910Z,49.30
2022-12-16T19:33:10.433Z,49.53
2022-12-16T19:35:56.945Z,49.10
2022-12-16T19:38:42.310Z,46.80
2022-12-16T19:41:36.345Z,46.85
2022-12-16T19:44:23.216Z,46.03
2022-12-16T19:47:09.366Z,46.40
2022-12-16T19:49:56.281Z,47.67
2022-12-16T19:52:42.813Z,41.97
2022-12-16T19:55:28.937Z,45.08
2022-12-16T19:58:14.728Z,46.72
2022-12-16T20:01:00.461Z,47.10
2022-12-16T20:03:46.707Z,49.58
2022-12-16T20:06:33.659Z,45.33
2022-12-16T20:09:19.666Z,49.20
2022-12-16T20:12:05.139Z,48.30
2022-12-16T20:14:51.651Z,50.05
2022-12-16T20:17:37.699Z,46.58
2022-12-16T20:20:23.655Z,50.08
2022-12-16T20:23:09.167Z,47.13
2022-12-16T20:25:56.509Z,45.75
2022-12-16T20:28:42.467Z,48.08
2022-12-16T20:31:28.066Z,52.13
2022-12-16T20:34:15.083Z,46.67
2022-12-16T20:37:00.684Z,49.37
2022-12-16T20:39:52.825Z,49.13
2022-12-16T20:42:46.411Z,52.83
2022-12-16T20:45:33.483Z,57.37
2022-12-16T20:48:19.438Z,50.10
2022-12-16T20:51:21.080Z,50.73
2022-12-16T20:54:10.593Z,52.27
2022-12-16T20:56:55.980Z,52.03
2022-12-16T20:59:41.733Z,51.13
2022-12-16T21:05:38.426Z,52.30
2022-12-16T21:08:24.328Z,47.37
2022-12-16T21:11:09.739Z,49.22
2022-12-16T21:13:56.691Z,44.75
2022-12-16T21:16:41.950Z,49.88
2022-12-16T21:19:33.008Z,46.20
2022-12-16T21:22:19.537Z,49.47
2022-12-16T21:25:24.818Z,55.93
2022-12-16T21:28:15.002Z,48.58
2022-12-16T21:31:00.507Z,50.53
2022-12-16T21:33:47.432Z,49.80
2022-12-16T21:36:33.126Z,50.60
2022-12-16T21:39:35.311Z,49.60
2022-12-16T21:42:20.734Z,45.95
2022-12-16T21:45:06.069Z,54.00
2022-12-16T21:47:51.684Z,49.00
2022-12-16T21:50:36.879Z,48.22
2022-12-16T21:53:22.338Z,52.08
2022-12-16T21:56:15.125Z,49.60
2022-12-16T21:59:03.354Z,51.93
2022-12-16T22:01:48.726Z,48.17
2022-12-16T22:04:34.098Z,53.83
2022-12-16T22:07:19.346Z,49.85
2022-12-16T22:10:05.192Z,52.22
2022-12-16T22:12:52.097Z,49.97
2022-12-16T22:15:37.553Z,53.25
2022-12-16T22:18:23.100Z,50.47
2022-12-16T22:21:20.334Z,45.53
2022-12-16T22:24:05.574Z,51.92
2022-12-16T22:26:50.907Z,48.90
2022-12-16T22:29:39.003Z,48.33
2022-12-16T22:32:24.995Z,46.27
2022-12-16T22:35:10.703Z,47.03
2022-12-16T22:37:56.243Z,46.90
2022-12-16T22:40:41.547Z,48.53
2022-12-16T22:43:26.997Z,54.80
2022-12-16T22:46:20.076Z,49.90
2022-12-16T22:49:06.091Z,49.97
2022-12-16T22:51:51.755Z,46.90
2022-12-16T22:54:45.563Z,50.23
2022-12-16T23:00:17.057Z,46.27
2022-12-16T23:03:02.383Z,48.13
2022-12-16T23:05:47.729Z,47.77
2022-12-16T23:08:33.032Z,43.20
2022-12-16T23:11:18.899Z,46.47
2022-12-16T23:14:04.506Z,48.20
2022-12-16T23:16:49.876Z,48.50
2022-12-16T23:19:35.188Z,49.60
2022-12-16T23:22:20.814Z,47.57
2022-12-16T23:25:06.099Z,45.57
2022-12-16T23:27:51.661Z,48.70
2022-12-16T23:30:37.391Z,44.33
2022-12-16T23:33:23.269Z,46.43
2022-12-16T23:36:08.744Z,47.40
2022-12-16T23:38:55.153Z,48.77
2022-12-16T23:41:41.839Z,51.00
2022-12-16T23:44:27.342Z,50.20
2022-12-16T23:47:12.493Z,43.50
2022-12-16T23:49:57.871Z,43.27
2022-12-16T23:52:43.281Z,49.03
2022-12-16T23:55:28.865Z,45.40
2022-12-16T23:58:21.233Z,41.33
